createdAt,value
2018-05-04T00:01:32.959Z,54.80
2018-05-04T00:04:02.718Z,54.90
2018-05-04T00:06:33.195Z,54.80
2018-05-04T00:09:03.323Z,54.90
2018-05-04T00:11:33.075Z,54.80
2018-05-04T00:14:04.421Z,54.70
2018-05-04T00:16:35.155Z,55.30
2018-05-04T00:19:05.070Z,54.70
2018-05-04T00:21:34.779Z,54.70
2018-05-04T00:24:05.103Z,54.50
2018-05-04T00:26:35.018Z,54.60
2018-05-04T00:29:04.888Z,54.90
2018-05-04T00:31:34.640Z,54.80
2018-05-04T00:34:06.090Z,54.80
2018-05-04T00:36:37.131Z,54.80
2018-05-04T00:39:08.481Z,54.60
2018-05-04T00:41:38.548Z,54.60
2018-05-04T00:44:09.337Z,54.70
2018-05-04T00:46:39.042Z,54.80
2018-05-04T00:49:09.276Z,54.90
2018-05-04T00:51:39.428Z,54.70
2018-05-04T00:54:20.831Z,54.80
2018-05-04T00:56:50.827Z,54.70
2018-05-04T00:59:21.070Z,54.70
2018-05-04T01:01:51.218Z,54.90
2018-05-04T01:04:22.265Z,54.80
2018-05-04T01:06:53.969Z,55.10
2018-05-04T01:09:24.550Z,55.10
2018-05-04T01:11:55.287Z,55.30
2018-05-04T01:14:25.609Z,54.80
2018-05-04T01:16:55.529Z,55.10
2018-05-04T01:19:25.231Z,55.20
2018-05-04T01:21:56.580Z,55.00
2018-05-04T01:24:26.497Z,55.10
2018-05-04T01:26:56.203Z,55.00
2018-05-04T01:29:26.119Z,54.90
2018-05-04T01:31:55.828Z,54.90
2018-05-04T01:34:25.946Z,54.80
2018-05-04T01:36:57.447Z,55.10
2018-05-04T01:39:27.210Z,55.10
2018-05-04T01:41:56.917Z,55.00
2018-05-04T01:44:28.152Z,55.10
2018-05-04T01:46:58.534Z,54.90
2018-05-04T01:49:28.306Z,55.10
2018-05-04T01:51:58.213Z,54.90
2018-05-04T01:54:28.349Z,54.90
2018-05-04T01:56:58.247Z,55.10
2018-05-04T01:59:28.161Z,55.10
2018-05-04T02:01:57.871Z,55.10
2018-05-04T02:04:28.194Z,55.00
2018-05-04T02:06:59.546Z,55.30
2018-05-04T02:09:29.252Z,55.20
2018-05-04T02:12:00.548Z,55.20
2018-05-04T02:14:30.515Z,55.20
2018-05-04T02:17:02.178Z,55.10
2018-05-04T02:19:32.949Z,55.40
2018-05-04T02:22:02.750Z,55.40
2018-05-04T02:24:32.780Z,55.40
2018-05-04T02:27:02.954Z,55.60
2018-05-04T02:29:32.867Z,56.30
2018-05-04T02:32:02.582Z,56.40
2018-05-04T02:34:33.925Z,56.20
2018-05-04T02:37:03.633Z,56.20
2018-05-04T02:39:33.351Z,56.50
2018-05-04T02:42:04.896Z,56.60
2018-05-04T02:44:34.604Z,56.60
2018-05-04T02:47:04.314Z,56.50
2018-05-04T02:49:34.842Z,56.60
2018-05-04T02:52:06.194Z,56.80
2018-05-04T02:54:35.900Z,56.70
2018-05-04T02:57:05.608Z,56.60
2018-05-04T02:59:36.957Z,56.60
2018-05-04T03:02:06.667Z,56.50
2018-05-04T03:04:38.015Z,56.70
2018-05-04T03:07:07.724Z,56.60
2018-05-04T03:09:37.435Z,56.80
2018-05-04T03:12:09.191Z,56.60
2018-05-04T03:14:39.105Z,56.60
2018-05-04T03:17:08.815Z,56.90
2018-05-04T03:19:38.524Z,56.90
2018-05-04T03:22:08.234Z,56.80
2018-05-04T03:24:37.944Z,56.80
2018-05-04T03:27:07.857Z,56.90
2018-05-04T03:29:37.567Z,56.90
2018-05-04T03:32:08.244Z,57.00
2018-05-04T03:34:38.215Z,56.90
2018-05-04T03:37:07.925Z,56.90
2018-05-04T03:39:39.272Z,57.10
2018-05-04T03:42:09.186Z,57.00
2018-05-04T03:44:38.896Z,57.20
2018-05-04T03:47:08.966Z,57.00
2018-05-04T03:49:38.729Z,57.20
2018-05-04T03:52:08.867Z,57.10
2018-05-04T03:54:38.759Z,57.20
2018-05-04T03:57:18.912Z,57.20
2018-05-04T03:59:59.885Z,57.10
2018-05-04T04:02:40.654Z,57.30
2018-05-04T04:05:10.568Z,57.40
2018-05-04T04:07:42.531Z,57.70
2018-05-04T04:10:12.398Z,57.70
2018-05-04T04:12:42.244Z,57.70
2018-05-04T04:15:11.864Z,57.80
2018-05-04T04:17:41.528Z,57.50
2018-05-04T04:20:11.289Z,57.70
2018-05-04T04:22:40.993Z,57.90
2018-05-04T04:25:10.710Z,57.90
2018-05-04T04:27:42.054Z,57.80
2018-05-04T04:30:11.776Z,57.80
2018-05-04T04:32:41.447Z,58.00
2018-05-04T04:35:11.182Z,58.00
2018-05-04T04:37:42.531Z,58.10
2018-05-04T04:40:12.442Z,58.10
2018-05-04T04:42:43.790Z,58.10
2018-05-04T04:45:14.321Z,58.10
2018-05-04T04:47:44.176Z,58.20
2018-05-04T04:50:14.353Z,58.30
2018-05-04T04:52:44.062Z,58.30
2018-05-04T04:55:15.615Z,58.50
2018-05-04T04:57:45.530Z,58.50
2018-05-04T05:00:15.246Z,58.60
2018-05-04T05:02:45.153Z,58.80
2018-05-04T05:05:20.910Z,58.70
2018-05-04T05:07:51.740Z,60.60
2018-05-04T05:10:21.450Z,60.20
2018-05-04T05:12:53.211Z,59.90
2018-05-04T05:15:24.565Z,59.90
2018-05-04T05:17:54.263Z,59.90
2018-05-04T05:20:24.795Z,59.90
2018-05-04T05:22:54.502Z,59.80
2018-05-04T05:25:24.420Z,60.00
2018-05-04T05:27:54.339Z,60.10
2018-05-04T05:30:24.040Z,60.20
2018-05-04T05:32:53.961Z,60.40
2018-05-04T05:35:23.667Z,60.50
2018-05-04T05:37:54.964Z,60.80
2018-05-04T05:40:24.927Z,60.70
2018-05-04T05:42:54.841Z,60.90
2018-05-04T05:45:26.190Z,61.10
2018-05-04T05:47:56.105Z,61.10
2018-05-04T05:50:27.453Z,61.40
2018-05-04T05:52:58.239Z,61.70
2018-05-04T05:55:28.100Z,61.70
2018-05-04T05:57:57.863Z,62.00
2018-05-04T06:00:27.519Z,61.90
2018-05-04T06:03:11.365Z,62.30
2018-05-04T06:05:50.801Z,62.30
2018-05-04T06:08:21.838Z,62.40
2018-05-04T06:10:52.775Z,62.40
2018-05-04T06:13:22.636Z,62.60
2018-05-04T06:15:52.399Z,62.80
2018-05-04T06:18:23.754Z,63.10
2018-05-04T06:20:53.663Z,63.00
2018-05-04T06:23:23.372Z,63.30
2018-05-04T06:25:53.287Z,63.30
2018-05-04T06:28:23.149Z,63.50
2018-05-04T06:30:53.120Z,63.50
2018-05-04T06:33:23.031Z,63.50
2018-05-04T06:35:52.942Z,63.60
2018-05-04T06:38:22.857Z,64.10
2018-05-04T06:40:52.570Z,64.40
2018-05-04T06:43:22.636Z,64.40
2018-05-04T06:45:52.451Z,64.70
2018-05-04T06:48:22.310Z,64.60
2018-05-04T06:50:52.019Z,64.80
2018-05-04T06:53:23.402Z,65.10
2018-05-04T06:55:54.101Z,65.10
2018-05-04T06:58:23.820Z,65.20
2018-05-04T07:00:53.930Z,65.60
2018-05-04T07:03:24.049Z,65.50
2018-05-04T07:05:53.969Z,66.80
2018-05-04T07:08:23.877Z,66.00
2018-05-04T07:10:53.794Z,65.80
2018-05-04T07:13:23.781Z,66.00
2018-05-04T07:15:53.521Z,66.60
2018-05-04T07:18:23.334Z,67.20
2018-05-04T07:20:53.044Z,65.90
2018-05-04T07:23:22.750Z,66.20
2018-05-04T07:25:52.464Z,66.00
2018-05-04T07:28:25.030Z,66.10
2018-05-04T07:30:54.745Z,66.10
2018-05-04T07:33:24.454Z,66.00
2018-05-04T07:35:54.117Z,66.10
2018-05-04T07:38:24.283Z,65.90
2018-05-04T07:40:54.198Z,66.00
2018-05-04T07:43:25.700Z,66.30
2018-05-04T07:45:55.461Z,66.30
2018-05-04T07:48:25.580Z,66.00
2018-05-04T07:50:55.702Z,66.10
2018-05-04T07:53:27.045Z,66.10
2018-05-04T07:55:56.756Z,66.10
2018-05-04T07:58:28.272Z,66.20
2018-05-04T08:00:58.635Z,66.10
2018-05-04T08:03:28.288Z,65.90
2018-05-04T08:05:58.257Z,65.90
2018-05-04T08:08:29.645Z,66.30
2018-05-04T08:10:59.446Z,66.30
2018-05-04T08:13:30.865Z,66.00
2018-05-04T08:16:00.741Z,66.00
2018-05-04T08:18:30.492Z,66.10
2018-05-04T08:21:00.815Z,66.20
2018-05-04T08:23:30.523Z,66.50
2018-05-04T08:26:00.232Z,65.70
2018-05-04T08:28:30.151Z,65.60
2018-05-04T08:31:00.676Z,65.50
2018-05-04T08:33:31.408Z,65.70
2018-05-04T08:36:02.962Z,65.70
2018-05-04T08:38:33.034Z,65.60
2018-05-04T08:41:02.945Z,65.60
2018-05-04T08:43:32.704Z,65.70
2018-05-04T08:46:02.414Z,65.80
2018-05-04T08:48:32.132Z,65.80
2018-05-04T08:51:02.105Z,65.20
2018-05-04T08:53:32.772Z,65.40
2018-05-04T08:56:02.686Z,65.60
2018-05-04T08:58:32.395Z,65.40
2018-05-04T09:01:02.104Z,65.30
2018-05-04T09:03:31.974Z,65.10
2018-05-04T09:06:02.140Z,65.10
2018-05-04T09:08:32.052Z,65.20
2018-05-04T09:11:01.966Z,65.10
2018-05-04T09:13:31.678Z,65.20
2018-05-04T09:16:01.392Z,65.30
2018-05-04T09:18:31.504Z,65.30
2018-05-04T09:21:01.214Z,65.40
2018-05-04T09:23:31.129Z,65.30
2018-05-04T09:26:01.008Z,64.20
2018-05-04T09:28:30.958Z,64.00
2018-05-04T09:31:00.735Z,64.00
2018-05-04T09:33:30.530Z,64.00
2018-05-04T09:36:00.498Z,64.80
2018-05-04T09:38:31.027Z,64.20
2018-05-04T09:41:01.144Z,63.90
2018-05-04T09:43:30.896Z,63.70
2018-05-04T09:46:00.974Z,63.70
2018-05-04T09:48:30.890Z,64.00
2018-05-04T09:51:02.645Z,64.30
2018-05-04T09:53:32.769Z,64.20
2018-05-04T09:56:02.766Z,64.40
2018-05-04T09:58:32.542Z,64.30
2018-05-04T10:01:02.836Z,64.50
2018-05-04T10:03:33.331Z,63.90
2018-05-04T10:06:03.161Z,63.90
2018-05-04T10:08:34.697Z,63.70
2018-05-04T10:11:04.360Z,63.60
2018-05-04T10:13:34.278Z,63.80
2018-05-04T10:16:04.269Z,63.80
2018-05-04T10:18:33.960Z,63.80
2018-05-04T10:21:03.664Z,63.40
2018-05-04T10:23:33.579Z,62.90
2018-05-04T10:26:03.493Z,63.20
2018-05-04T10:28:33.407Z,62.90
2018-05-04T10:31:03.418Z,63.00
2018-05-04T10:33:33.186Z,63.00
2018-05-04T10:36:02.946Z,63.30
2018-05-04T10:38:33.282Z,63.50
2018-05-04T10:41:02.988Z,63.30
2018-05-04T10:43:33.060Z,63.40
2018-05-04T10:46:03.012Z,63.40
2018-05-04T10:48:33.952Z,63.50
2018-05-04T10:51:05.305Z,63.20
2018-05-04T10:53:35.829Z,63.20
2018-05-04T10:56:05.741Z,63.20
2018-05-04T10:58:36.017Z,63.40
2018-05-04T11:01:05.979Z,63.30
2018-05-04T11:03:35.689Z,63.10
2018-05-04T11:06:05.608Z,63.20
2018-05-04T11:08:36.954Z,62.90
2018-05-04T11:11:06.874Z,62.90
2018-05-04T11:13:36.984Z,63.00
2018-05-04T11:16:08.404Z,63.00
2018-05-04T11:18:38.663Z,63.00
2018-05-04T11:21:08.725Z,63.00
2018-05-04T11:23:38.493Z,62.90
2018-05-04T11:26:08.194Z,62.90
2018-05-04T11:28:38.113Z,62.80
2018-05-04T11:31:08.025Z,62.90
2018-05-04T11:33:38.346Z,62.80
2018-05-04T11:36:09.902Z,62.80
2018-05-04T11:38:40.018Z,62.80
2018-05-04T11:41:11.367Z,62.80
2018-05-04T11:43:42.876Z,62.80
2018-05-04T11:46:12.786Z,62.80
2018-05-04T11:48:42.750Z,62.90
2018-05-04T11:51:12.662Z,63.00
2018-05-04T11:53:42.372Z,62.70
2018-05-04T11:56:12.491Z,62.90
2018-05-04T11:58:43.840Z,62.80
2018-05-04T12:01:13.752Z,62.80
2018-05-04T12:03:45.101Z,62.20
2018-05-04T12:06:15.019Z,62.10
2018-05-04T12:08:44.929Z,62.10
2018-05-04T12:11:15.048Z,62.30
2018-05-04T12:13:46.397Z,62.70
2018-05-04T12:16:16.324Z,62.60
2018-05-04T12:18:46.228Z,62.50
2018-05-04T12:21:16.754Z,62.70
2018-05-04T12:23:47.034Z,62.70
2018-05-04T12:26:16.787Z,62.90
2018-05-04T12:28:48.341Z,62.80
2018-05-04T12:31:18.101Z,62.90
2018-05-04T12:33:47.893Z,62.50
2018-05-04T12:36:17.827Z,62.60
2018-05-04T12:38:47.587Z,63.30
2018-05-04T12:41:17.456Z,62.60
2018-05-04T12:43:47.375Z,62.70
2018-05-04T12:46:17.333Z,62.50
2018-05-04T12:48:47.041Z,62.40
2018-05-04T12:51:16.954Z,62.50
2018-05-04T12:53:46.702Z,62.60
2018-05-04T12:56:16.577Z,62.70
2018-05-04T12:58:46.494Z,62.70
2018-05-04T13:01:17.845Z,62.60
2018-05-04T13:03:47.854Z,62.60
2018-05-04T13:06:18.080Z,62.80
2018-05-04T13:08:48.103Z,62.70
2018-05-04T13:11:18.317Z,62.30
2018-05-04T13:13:48.602Z,62.60
2018-05-04T13:16:18.350Z,62.00
2018-05-04T13:18:48.265Z,62.10
2018-05-04T13:21:18.444Z,61.80
2018-05-04T13:23:48.502Z,62.10
2018-05-04T13:26:20.056Z,62.10
2018-05-04T13:28:50.178Z,62.10
2018-05-04T13:31:20.089Z,62.20
2018-05-04T13:33:50.003Z,61.60
2018-05-04T13:36:20.117Z,59.10
2018-05-04T13:38:50.243Z,58.70
2018-05-04T13:41:20.512Z,59.80
2018-05-04T13:43:50.274Z,60.20
2018-05-04T13:46:20.155Z,60.30
2018-05-04T13:48:50.308Z,60.60
2018-05-04T13:51:21.718Z,60.40
2018-05-04T13:53:51.570Z,61.10
2018-05-04T13:56:23.124Z,60.50
2018-05-04T13:58:54.472Z,60.60
2018-05-04T14:01:24.593Z,60.50
2018-05-04T14:03:54.540Z,60.90
2018-05-04T14:06:24.829Z,60.90
2018-05-04T14:08:54.744Z,61.00
2018-05-04T14:11:24.865Z,60.40
2018-05-04T14:13:54.776Z,60.70
2018-05-04T14:16:24.691Z,60.90
2018-05-04T14:18:56.039Z,61.00
2018-05-04T14:21:26.776Z,61.00
2018-05-04T14:23:56.686Z,61.10
2018-05-04T14:26:27.191Z,61.00
2018-05-04T14:28:57.262Z,60.40
2018-05-04T14:31:27.863Z,60.70
2018-05-04T14:33:57.983Z,60.70
2018-05-04T14:36:59.231Z,60.90
2018-05-04T14:39:30.749Z,60.90
2018-05-04T14:42:00.496Z,60.90
2018-05-04T14:44:32.868Z,60.40
2018-05-04T14:47:03.394Z,60.70
2018-05-04T14:49:33.107Z,60.60
2018-05-04T14:52:04.491Z,60.40
2018-05-04T14:54:34.369Z,60.40
2018-05-04T14:57:04.289Z,60.40
2018-05-04T14:59:35.189Z,60.60
2018-05-04T15:02:05.137Z,60.60
2018-05-04T15:04:36.557Z,58.40
2018-05-04T15:07:06.402Z,58.20
2018-05-04T15:09:36.515Z,55.90
2018-05-04T15:12:06.634Z,56.00
2018-05-04T15:14:36.450Z,57.60
2018-05-04T15:17:06.622Z,58.50
2018-05-04T15:19:36.597Z,58.80
2018-05-04T15:22:06.680Z,59.30
2018-05-04T15:24:37.437Z,58.90
2018-05-04T15:27:08.143Z,59.60
2018-05-04T15:29:40.132Z,59.70
2018-05-04T15:32:10.864Z,59.70
2018-05-04T15:34:40.783Z,59.70
2018-05-04T15:37:10.900Z,59.70
2018-05-04T15:39:40.608Z,60.00
2018-05-04T15:42:11.550Z,59.90
2018-05-04T15:44:49.686Z,60.30
2018-05-04T15:47:27.745Z,60.30
2018-05-04T15:50:02.385Z,59.60
2018-05-04T15:52:32.296Z,59.80
2018-05-04T15:55:03.213Z,59.70
2018-05-04T15:57:33.096Z,59.90
2018-05-04T16:00:03.118Z,60.30
2018-05-04T16:02:33.184Z,60.20
2018-05-04T16:05:04.331Z,60.70
2018-05-04T16:07:34.244Z,60.60
2018-05-04T16:10:05.590Z,60.60
2018-05-04T16:12:37.142Z,61.30
2018-05-04T16:15:07.065Z,60.60
2018-05-04T16:17:36.923Z,60.60
2018-05-04T16:20:06.683Z,60.70
2018-05-04T16:22:36.606Z,60.00
2018-05-04T16:25:06.921Z,60.90
2018-05-04T16:27:37.023Z,60.40
2018-05-04T16:30:07.157Z,61.20
2018-05-04T16:32:37.561Z,60.70
2018-05-04T16:35:07.400Z,60.60
2018-05-04T16:37:38.742Z,61.00
2018-05-04T16:40:08.451Z,61.00
2018-05-04T16:42:38.373Z,61.60
2018-05-04T16:45:08.045Z,60.90
2018-05-04T16:47:42.701Z,61.30
2018-05-04T16:50:12.615Z,61.80
2018-05-04T16:52:42.531Z,61.80
2018-05-04T16:55:12.650Z,61.40
2018-05-04T16:57:44.163Z,60.40
2018-05-04T17:00:14.319Z,60.40
2018-05-04T17:02:44.238Z,61.00
2018-05-04T17:05:14.096Z,61.00
2018-05-04T17:07:44.064Z,61.20
2018-05-04T17:10:14.388Z,61.40
2018-05-04T17:12:45.708Z,61.50
2018-05-04T17:15:15.653Z,61.40
2018-05-04T17:17:45.511Z,61.60
2018-05-04T17:20:15.278Z,61.90
2018-05-04T17:22:45.191Z,59.30
2018-05-04T17:25:15.106Z,60.10
2018-05-04T17:27:45.035Z,59.80
2018-05-04T17:30:15.294Z,59.50
2018-05-04T17:32:45.665Z,59.30
2018-05-04T17:35:17.014Z,59.30
2018-05-04T17:37:47.079Z,59.30
2018-05-04T17:40:17.166Z,59.20
2018-05-04T17:42:47.161Z,59.00
2018-05-04T17:45:17.910Z,59.00
2018-05-04T17:47:47.814Z,59.20
2018-05-04T17:50:17.932Z,59.10
2018-05-04T17:52:49.616Z,58.80
2018-05-04T17:55:20.323Z,59.10
2018-05-04T17:57:50.338Z,59.10
2018-05-04T18:00:21.891Z,59.00
2018-05-04T18:02:51.750Z,58.90
2018-05-04T18:05:21.806Z,58.80
2018-05-04T18:07:51.832Z,59.10
2018-05-04T18:10:22.013Z,59.10
2018-05-04T18:12:51.944Z,59.00
2018-05-04T18:15:22.199Z,59.10
2018-05-04T18:17:53.788Z,59.20
2018-05-04T18:20:23.612Z,59.30
2018-05-04T18:22:53.371Z,59.30
2018-05-04T18:25:23.345Z,59.20
2018-05-04T18:27:53.540Z,59.70
2018-05-04T18:30:24.532Z,59.80
2018-05-04T18:32:54.667Z,59.80
2018-05-04T18:35:26.017Z,59.70
2018-05-04T18:37:55.878Z,59.60
2018-05-04T18:40:25.999Z,59.90
2018-05-04T18:42:56.988Z,59.70
2018-05-04T18:45:26.737Z,60.40
2018-05-04T18:47:57.801Z,60.50
2018-05-04T18:50:28.369Z,60.60
2018-05-04T18:52:58.701Z,60.30
2018-05-04T18:55:28.555Z,60.60
2018-05-04T18:57:58.784Z,60.70
2018-05-04T19:00:28.802Z,60.50
2018-05-04T19:03:03.062Z,60.10
2018-05-04T19:05:33.029Z,59.90
2018-05-04T19:08:03.098Z,60.30
2018-05-04T19:10:33.009Z,60.50
2018-05-04T19:13:03.127Z,60.30
2018-05-04T19:15:33.250Z,60.30
2018-05-04T19:18:03.323Z,60.00
2018-05-04T19:20:33.703Z,59.80
2018-05-04T19:23:03.761Z,60.00
2018-05-04T19:25:33.705Z,59.90
2018-05-04T19:28:04.047Z,59.80
2018-05-04T19:30:34.793Z,59.80
2018-05-04T19:33:05.513Z,59.90
2018-05-04T19:35:35.634Z,59.90
2018-05-04T19:38:06.307Z,59.80
2018-05-04T19:40:36.856Z,59.80
2018-05-04T19:43:06.708Z,59.70
2018-05-04T19:45:37.930Z,59.60
2018-05-04T19:48:08.421Z,59.60
2018-05-04T19:50:38.523Z,59.80
2018-05-04T19:53:08.547Z,59.40
2018-05-04T19:55:39.346Z,59.50
2018-05-04T19:58:09.885Z,59.50
2018-05-04T20:00:46.584Z,59.30
2018-05-04T20:03:25.329Z,59.40
2018-05-04T20:05:56.263Z,59.20
2018-05-04T20:08:26.105Z,59.20
2018-05-04T20:10:56.212Z,59.10
2018-05-04T20:13:26.958Z,59.20
2018-05-04T20:15:57.161Z,59.00
2018-05-04T20:18:27.265Z,58.80
2018-05-04T20:20:57.148Z,56.60
2018-05-04T20:23:28.992Z,55.70
2018-05-04T20:26:00.647Z,56.50
2018-05-04T20:28:31.587Z,56.70
2018-05-04T20:31:01.425Z,58.70
2018-05-04T20:33:31.244Z,58.50
2018-05-04T20:36:01.518Z,58.30
2018-05-04T20:38:42.725Z,58.80
2018-05-04T20:41:25.560Z,58.10
2018-05-04T20:43:56.221Z,58.00
2018-05-04T20:46:26.176Z,57.90
2018-05-04T20:48:56.101Z,57.80
2018-05-04T20:51:26.209Z,57.70
2018-05-04T20:53:57.772Z,57.60
2018-05-04T20:56:27.957Z,57.50
2018-05-04T20:58:57.793Z,57.60
2018-05-04T21:01:27.578Z,57.60
2018-05-04T21:03:57.449Z,57.70
2018-05-04T21:06:27.540Z,57.60
2018-05-04T21:08:57.252Z,57.80
2018-05-04T21:11:27.165Z,57.60
2018-05-04T21:13:58.537Z,57.80
2018-05-04T21:16:28.425Z,57.70
2018-05-04T21:18:58.341Z,57.60
2018-05-04T21:21:28.289Z,57.60
2018-05-04T21:23:58.122Z,57.40
2018-05-04T21:26:27.878Z,57.30
2018-05-04T21:28:57.793Z,57.30
2018-05-04T21:31:27.655Z,57.20
2018-05-04T21:33:57.418Z,57.30
2018-05-04T21:36:27.291Z,57.30
2018-05-04T21:38:57.169Z,57.30
2018-05-04T21:41:28.391Z,57.00
2018-05-04T21:43:58.302Z,57.00
2018-05-04T21:46:28.046Z,57.00
2018-05-04T21:48:58.119Z,57.20
2018-05-04T21:51:27.833Z,56.90
2018-05-04T21:53:57.708Z,57.00
2018-05-04T21:56:27.673Z,57.00
2018-05-04T21:58:58.404Z,57.00
2018-05-04T22:01:37.978Z,56.80
2018-05-04T22:04:13.878Z,56.90
2018-05-04T22:06:44.299Z,56.80
2018-05-04T22:09:14.465Z,56.90
2018-05-04T22:11:45.143Z,56.90
2018-05-04T22:14:14.897Z,57.00
2018-05-04T22:16:45.006Z,56.90
2018-05-04T22:19:14.921Z,56.90
2018-05-04T22:21:44.836Z,56.80
2018-05-04T22:24:14.765Z,56.70
2018-05-04T22:26:44.609Z,56.50
2018-05-04T22:29:14.783Z,56.60
2018-05-04T22:31:46.029Z,56.50
2018-05-04T22:34:16.249Z,56.70
2018-05-04T22:36:46.164Z,56.90
2018-05-04T22:39:17.829Z,56.80
2018-05-04T22:41:47.850Z,56.40
2018-05-04T22:44:17.750Z,56.30
2018-05-04T22:46:47.720Z,56.80
2018-05-04T22:49:17.786Z,56.60
2018-05-04T22:51:47.851Z,56.60
2018-05-04T22:54:17.819Z,56.70
2018-05-04T22:56:49.164Z,56.90
2018-05-04T22:59:19.186Z,56.90
2018-05-04T23:01:48.994Z,56.70
2018-05-04T23:04:18.709Z,56.60
2018-05-04T23:06:48.624Z,56.70
2018-05-04T23:09:18.325Z,56.70
2018-05-04T23:11:48.242Z,56.60
2018-05-04T23:14:17.958Z,56.60
2018-05-04T23:16:47.660Z,56.70
2018-05-04T23:19:19.007Z,56.50
2018-05-04T23:21:49.129Z,56.40
2018-05-04T23:24:19.041Z,56.50
2018-05-04T23:26:50.189Z,56.40
2018-05-04T23:29:19.895Z,57.00
2018-05-04T23:31:50.123Z,56.40
2018-05-04T23:34:19.927Z,56.20
2018-05-04T23:36:49.844Z,56.10
2018-05-04T23:39:19.757Z,56.10
2018-05-04T23:41:49.670Z,56.10
2018-05-04T23:44:19.584Z,56.20
2018-05-04T23:46:49.498Z,56.10
2018-05-04T23:49:19.412Z,56.10
2018-05-04T23:51:50.150Z,56.00
2018-05-04T23:54:19.984Z,55.90
2018-05-04T23:56:50.592Z,55.90
2018-05-04T23:59:20.600Z,55.90
